sensor_id;sensor_type;location;lat;lon;timestamp;P1;durP1;ratioP1;P2;durP2;ratioP2
74777;SDS011;63298;53.164;8.610;2023-05-10T00:01:42;8.75;;;5.07;;
74777;SDS011;63298;53.164;8.610;2023-05-10T00:04:08;5.57;;;4.97;;
74777;SDS011;63298;53.164;8.610;2023-05-10T00:06:33;7.90;;;5.63;;
74777;SDS011;63298;53.164;8.610;2023-05-10T00:08:58;10.20;;;6.18;;
74777;SDS011;63298;53.164;8.610;2023-05-10T00:11:24;10.55;;;5.75;;
74777;SDS011;63298;53.164;8.610;2023-05-10T00:13:49;7.82;;;5.47;;
74777;SDS011;63298;53.164;8.610;2023-05-10T00:16:14;8.80;;;6.15;;
74777;SDS011;63298;53.164;8.610;2023-05-10T00:18:40;7.15;;;6.30;;
74777;SDS011;63298;53.164;8.610;2023-05-10T00:21:05;13.48;;;6.80;;
74777;SDS011;63298;53.164;8.610;2023-05-10T00:23:30;8.65;;;6.57;;
74777;SDS011;63298;53.164;8.610;2023-05-10T00:25:56;8.50;;;6.72;;
74777;SDS011;63298;53.164;8.610;2023-05-10T00:28:21;7.78;;;6.53;;
74777;SDS011;63298;53.164;8.610;2023-05-10T00:30:47;8.70;;;6.95;;
74777;SDS011;63298;53.164;8.610;2023-05-10T00:33:12;9.10;;;7.22;;
74777;SDS011;63298;53.164;8.610;2023-05-10T00:35:37;9.82;;;7.43;;
74777;SDS011;63298;53.164;8.610;2023-05-10T00:38:03;12.15;;;7.20;;
74777;SDS011;63298;53.164;8.610;2023-05-10T00:40:28;8.85;;;7.03;;
74777;SDS011;63298;53.164;8.610;2023-05-10T00:42:54;11.27;;;7.00;;
74777;SDS011;63298;53.164;8.610;2023-05-10T00:45:19;9.43;;;7.30;;
74777;SDS011;63298;53.164;8.610;2023-05-10T00:47:45;9.30;;;7.03;;
74777;SDS011;63298;53.164;8.610;2023-05-10T00:50:10;7.65;;;6.85;;
74777;SDS011;63298;53.164;8.610;2023-05-10T00:52:35;9.05;;;6.88;;
74777;SDS011;63298;53.164;8.610;2023-05-10T00:55:01;10.18;;;7.38;;
74777;SDS011;63298;53.164;8.610;2023-05-10T00:57:26;8.57;;;6.78;;
74777;SDS011;63298;53.164;8.610;2023-05-10T00:59:51;8.18;;;6.55;;
74777;SDS011;63298;53.164;8.610;2023-05-10T01:02:17;9.80;;;6.38;;
74777;SDS011;63298;53.164;8.610;2023-05-10T01:04:42;7.45;;;5.82;;
74777;SDS011;63298;53.164;8.610;2023-05-10T01:07:08;12.95;;;6.20;;
74777;SDS011;63298;53.164;8.610;2023-05-10T01:09:33;9.40;;;5.72;;
74777;SDS011;63298;53.164;8.610;2023-05-10T01:11:59;11.57;;;5.80;;
74777;SDS011;63298;53.164;8.610;2023-05-10T01:14:25;11.18;;;5.13;;
74777;SDS011;63298;53.164;8.610;2023-05-10T01:16:52;6.45;;;4.80;;
74777;SDS011;63298;53.164;8.610;2023-05-10T01:19:28;7.32;;;5.57;;
74777;SDS011;63298;53.164;8.610;2023-05-10T01:38:04;8.13;;;3.80;;
74777;SDS011;63298;53.164;8.610;2023-05-10T01:40:35;7.10;;;3.55;;
74777;SDS011;63298;53.164;8.610;2023-05-10T01:43:08;4.47;;;3.55;;
74777;SDS011;63298;53.164;8.610;2023-05-10T01:45:50;5.15;;;3.67;;
74777;SDS011;63298;53.164;8.610;2023-05-10T01:48:25;4.97;;;3.55;;
74777;SDS011;63298;53.164;8.610;2023-05-10T01:50:52;5.22;;;3.33;;
74777;SDS011;63298;53.164;8.610;2023-05-10T01:53:19;6.93;;;3.47;;
74777;SDS011;63298;53.164;8.610;2023-05-10T01:55:48;3.33;;;3.03;;
74777;SDS011;63298;53.164;8.610;2023-05-10T02:00:45;4.88;;;2.95;;
74777;SDS011;63298;53.164;8.610;2023-05-10T02:03:12;7.10;;;3.00;;
74777;SDS011;63298;53.164;8.610;2023-05-10T02:05:39;4.63;;;3.00;;
74777;SDS011;63298;53.164;8.610;2023-05-10T02:08:06;3.80;;;2.78;;
74777;SDS011;63298;53.164;8.610;2023-05-10T02:10:36;4.65;;;2.90;;
74777;SDS011;63298;53.164;8.610;2023-05-10T02:13:02;4.72;;;3.00;;
74777;SDS011;63298;53.164;8.610;2023-05-10T02:15:30;9.25;;;3.17;;
74777;SDS011;63298;53.164;8.610;2023-05-10T02:17:56;5.60;;;3.00;;
74777;SDS011;63298;53.164;8.610;2023-05-10T02:20:23;4.75;;;2.80;;
74777;SDS011;63298;53.164;8.610;2023-05-10T02:22:50;3.83;;;2.55;;
74777;SDS011;63298;53.164;8.610;2023-05-10T02:25:19;2.75;;;2.38;;
74777;SDS011;63298;53.164;8.610;2023-05-10T02:27:46;3.20;;;2.65;;
74777;SDS011;63298;53.164;8.610;2023-05-10T02:30:13;3.72;;;2.30;;
74777;SDS011;63298;53.164;8.610;2023-05-10T02:32:39;3.22;;;2.60;;
74777;SDS011;63298;53.164;8.610;2023-05-10T02:35:24;4.65;;;2.50;;
74777;SDS011;63298;53.164;8.610;2023-05-10T02:37:51;4.65;;;2.90;;
74777;SDS011;63298;53.164;8.610;2023-05-10T02:40:18;6.00;;;2.65;;
74777;SDS011;63298;53.164;8.610;2023-05-10T02:42:48;3.10;;;2.72;;
74777;SDS011;63298;53.164;8.610;2023-05-10T02:45:18;2.70;;;2.50;;
74777;SDS011;63298;53.164;8.610;2023-05-10T02:47:48;6.90;;;2.70;;
74777;SDS011;63298;53.164;8.610;2023-05-10T02:50:14;7.32;;;2.92;;
74777;SDS011;63298;53.164;8.610;2023-05-10T02:52:44;4.10;;;2.38;;
74777;SDS011;63298;53.164;8.610;2023-05-10T02:55:13;5.72;;;2.97;;
74777;SDS011;63298;53.164;8.610;2023-05-10T02:57:43;5.45;;;2.70;;
74777;SDS011;63298;53.164;8.610;2023-05-10T03:00:16;2.58;;;2.38;;
74777;SDS011;63298;53.164;8.610;2023-05-10T03:02:41;4.00;;;2.58;;
74777;SDS011;63298;53.164;8.610;2023-05-10T03:05:07;4.03;;;2.75;;
74777;SDS011;63298;53.164;8.610;2023-05-10T03:07:33;4.47;;;2.45;;
74777;SDS011;63298;53.164;8.610;2023-05-10T03:09:59;5.50;;;2.42;;
74777;SDS011;63298;53.164;8.610;2023-05-10T03:12:33;3.83;;;2.22;;
74777;SDS011;63298;53.164;8.610;2023-05-10T03:20:22;3.03;;;2.63;;
74777;SDS011;63298;53.164;8.610;2023-05-10T03:22:55;7.70;;;2.70;;
74777;SDS011;63298;53.164;8.610;2023-05-10T03:25:22;5.10;;;2.45;;
74777;SDS011;63298;53.164;8.610;2023-05-10T03:27:49;3.78;;;2.47;;
74777;SDS011;63298;53.164;8.610;2023-05-10T03:30:15;2.70;;;2.50;;
74777;SDS011;63298;53.164;8.610;2023-05-10T03:32:41;3.33;;;2.45;;
74777;SDS011;63298;53.164;8.610;2023-05-10T03:35:07;2.70;;;2.50;;
74777;SDS011;63298;53.164;8.610;2023-05-10T03:37:33;2.47;;;2.20;;
74777;SDS011;63298;53.164;8.610;2023-05-10T03:39:58;3.05;;;2.25;;
74777;SDS011;63298;53.164;8.610;2023-05-10T03:42:24;3.28;;;2.53;;
74777;SDS011;63298;53.164;8.610;2023-05-10T03:44:49;2.97;;;2.70;;
74777;SDS011;63298;53.164;8.610;2023-05-10T03:47:14;5.30;;;2.78;;
74777;SDS011;63298;53.164;8.610;2023-05-10T03:49:40;5.82;;;2.60;;
74777;SDS011;63298;53.164;8.610;2023-05-10T03:52:05;12.82;;;3.22;;
74777;SDS011;63298;53.164;8.610;2023-05-10T03:54:30;4.55;;;2.17;;
74777;SDS011;63298;53.164;8.610;2023-05-10T03:56:56;10.30;;;2.85;;
74777;SDS011;63298;53.164;8.610;2023-05-10T03:59:22;9.70;;;2.90;;
74777;SDS011;63298;53.164;8.610;2023-05-10T04:01:47;7.22;;;3.08;;
74777;SDS011;63298;53.164;8.610;2023-05-10T04:04:12;5.80;;;2.70;;
74777;SDS011;63298;53.164;8.610;2023-05-10T04:06:37;4.95;;;2.70;;
74777;SDS011;63298;53.164;8.610;2023-05-10T04:09:03;6.68;;;2.90;;
74777;SDS011;63298;53.164;8.610;2023-05-10T04:11:28;3.75;;;2.95;;
74777;SDS011;63298;53.164;8.610;2023-05-10T04:13:53;7.80;;;2.95;;
74777;SDS011;63298;53.164;8.610;2023-05-10T04:16:19;10.53;;;3.47;;
74777;SDS011;63298;53.164;8.610;2023-05-10T04:18:44;5.50;;;2.92;;
74777;SDS011;63298;53.164;8.610;2023-05-10T04:21:13;4.72;;;2.47;;
74777;SDS011;63298;53.164;8.610;2023-05-10T04:23:39;6.47;;;2.88;;
74777;SDS011;63298;53.164;8.610;2023-05-10T04:26:04;4.18;;;2.63;;
74777;SDS011;63298;53.164;8.610;2023-05-10T04:28:30;10.63;;;2.78;;
74777;SDS011;63298;53.164;8.610;2023-05-10T04:33:32;2.90;;;2.50;;
74777;SDS011;63298;53.164;8.610;2023-05-10T04:35:57;4.15;;;2.88;;
74777;SDS011;63298;53.164;8.610;2023-05-10T04:38:23;3.80;;;2.83;;
74777;SDS011;63298;53.164;8.610;2023-05-10T04:40:48;4.93;;;2.60;;
74777;SDS011;63298;53.164;8.610;2023-05-10T04:43:14;2.97;;;2.55;;
74777;SDS011;63298;53.164;8.610;2023-05-10T04:45:39;2.95;;;2.55;;
74777;SDS011;63298;53.164;8.610;2023-05-10T04:48:04;5.22;;;2.45;;
74777;SDS011;63298;53.164;8.610;2023-05-10T04:50:30;4.85;;;3.25;;
74777;SDS011;63298;53.164;8.610;2023-05-10T04:52:55;7.88;;;2.78;;
74777;SDS011;63298;53.164;8.610;2023-05-10T04:55:20;3.45;;;2.83;;
74777;SDS011;63298;53.164;8.610;2023-05-10T04:57:46;3.58;;;2.90;;
74777;SDS011;63298;53.164;8.610;2023-05-10T05:00:11;4.53;;;2.60;;
74777;SDS011;63298;53.164;8.610;2023-05-10T05:02:37;4.78;;;3.05;;
74777;SDS011;63298;53.164;8.610;2023-05-10T05:05:02;4.30;;;3.22;;
74777;SDS011;63298;53.164;8.610;2023-05-10T05:07:28;4.60;;;3.30;;
74777;SDS011;63298;53.164;8.610;2023-05-10T05:09:53;5.82;;;3.30;;
74777;SDS011;63298;53.164;8.610;2023-05-10T05:12:18;4.37;;;3.60;;
74777;SDS011;63298;53.164;8.610;2023-05-10T05:14:44;4.95;;;3.58;;
74777;SDS011;63298;53.164;8.610;2023-05-10T05:17:09;7.60;;;3.70;;
74777;SDS011;63298;53.164;8.610;2023-05-10T05:19:34;5.35;;;3.20;;
74777;SDS011;63298;53.164;8.610;2023-05-10T05:21:59;5.15;;;3.42;;
74777;SDS011;63298;53.164;8.610;2023-05-10T05:24:25;3.28;;;2.97;;
74777;SDS011;63298;53.164;8.610;2023-05-10T05:26:50;3.80;;;3.13;;
74777;SDS011;63298;53.164;8.610;2023-05-10T05:29:15;6.97;;;3.80;;
74777;SDS011;63298;53.164;8.610;2023-05-10T05:31:41;4.32;;;3.33;;
74777;SDS011;63298;53.164;8.610;2023-05-10T05:34:06;4.18;;;3.25;;
74777;SDS011;63298;53.164;8.610;2023-05-10T05:36:31;4.85;;;3.58;;
74777;SDS011;63298;53.164;8.610;2023-05-10T05:38:57;4.13;;;3.72;;
74777;SDS011;63298;53.164;8.610;2023-05-10T05:41:22;5.85;;;3.10;;
74777;SDS011;63298;53.164;8.610;2023-05-10T05:43:47;3.80;;;3.42;;
74777;SDS011;63298;53.164;8.610;2023-05-10T05:46:13;5.47;;;3.40;;
74777;SDS011;63298;53.164;8.610;2023-05-10T05:48:38;4.95;;;3.50;;
74777;SDS011;63298;53.164;8.610;2023-05-10T05:51:03;4.53;;;3.60;;
74777;SDS011;63298;53.164;8.610;2023-05-10T05:53:29;4.15;;;3.40;;
74777;SDS011;63298;53.164;8.610;2023-05-10T05:55:54;7.13;;;3.97;;
74777;SDS011;63298;53.164;8.610;2023-05-10T05:58:21;4.85;;;3.45;;
74777;SDS011;63298;53.164;8.610;2023-05-10T06:00:47;7.13;;;3.90;;
74777;SDS011;63298;53.164;8.610;2023-05-10T06:03:12;4.70;;;3.33;;
74777;SDS011;63298;53.164;8.610;2023-05-10T06:05:38;7.28;;;4.57;;
74777;SDS011;63298;53.164;8.610;2023-05-10T06:08:03;5.80;;;3.83;;
74777;SDS011;63298;53.164;8.610;2023-05-10T06:10:29;5.10;;;3.83;;
74777;SDS011;63298;53.164;8.610;2023-05-10T06:12:54;9.32;;;3.92;;
74777;SDS011;63298;53.164;8.610;2023-05-10T06:15:19;4.53;;;3.72;;
74777;SDS011;63298;53.164;8.610;2023-05-10T06:17:44;5.45;;;3.75;;
74777;SDS011;63298;53.164;8.610;2023-05-10T06:20:10;5.30;;;3.80;;
74777;SDS011;63298;53.164;8.610;2023-05-10T06:22:36;5.53;;;4.30;;
74777;SDS011;63298;53.164;8.610;2023-05-10T06:25:01;5.13;;;4.10;;
74777;SDS011;63298;53.164;8.610;2023-05-10T06:27:26;6.90;;;4.53;;
74777;SDS011;63298;53.164;8.610;2023-05-10T06:29:52;6.82;;;4.10;;
74777;SDS011;63298;53.164;8.610;2023-05-10T06:32:17;5.70;;;4.18;;
74777;SDS011;63298;53.164;8.610;2023-05-10T06:34:42;7.03;;;4.40;;
74777;SDS011;63298;53.164;8.610;2023-05-10T06:37:07;5.07;;;3.80;;
74777;SDS011;63298;53.164;8.610;2023-05-10T06:39:33;4.35;;;3.88;;
74777;SDS011;63298;53.164;8.610;2023-05-10T06:41:58;9.82;;;4.20;;
74777;SDS011;63298;53.164;8.610;2023-05-10T06:44:23;6.07;;;4.25;;
74777;SDS011;63298;53.164;8.610;2023-05-10T06:46:49;8.10;;;4.35;;
74777;SDS011;63298;53.164;8.610;2023-05-10T06:49:14;5.88;;;4.28;;
74777;SDS011;63298;53.164;8.610;2023-05-10T06:51:39;5.37;;;4.77;;
74777;SDS011;63298;53.164;8.610;2023-05-10T06:54:05;5.60;;;3.72;;
74777;SDS011;63298;53.164;8.610;2023-05-10T06:56:30;4.75;;;3.90;;
74777;SDS011;63298;53.164;8.610;2023-05-10T06:58:55;4.80;;;4.18;;
74777;SDS011;63298;53.164;8.610;2023-05-10T07:01:20;4.33;;;3.90;;
74777;SDS011;63298;53.164;8.610;2023-05-10T07:03:46;6.60;;;4.27;;
74777;SDS011;63298;53.164;8.610;2023-05-10T07:06:11;4.70;;;4.10;;
74777;SDS011;63298;53.164;8.610;2023-05-10T07:08:36;4.70;;;3.67;;
74777;SDS011;63298;53.164;8.610;2023-05-10T07:11:02;3.65;;;3.35;;
74777;SDS011;63298;53.164;8.610;2023-05-10T07:13:29;4.07;;;3.75;;
74777;SDS011;63298;53.164;8.610;2023-05-10T07:15:55;3.42;;;2.95;;
74777;SDS011;63298;53.164;8.610;2023-05-10T07:18:21;2.63;;;2.40;;
74777;SDS011;63298;53.164;8.610;2023-05-10T07:20:46;2.00;;;1.90;;
74777;SDS011;63298;53.164;8.610;2023-05-10T07:23:11;2.20;;;2.10;;
74777;SDS011;63298;53.164;8.610;2023-05-10T07:25:36;2.33;;;2.22;;
74777;SDS011;63298;53.164;8.610;2023-05-10T07:28:02;2.35;;;2.15;;
74777;SDS011;63298;53.164;8.610;2023-05-10T07:30:27;3.17;;;2.20;;
74777;SDS011;63298;53.164;8.610;2023-05-10T07:32:52;2.00;;;1.90;;
74777;SDS011;63298;53.164;8.610;2023-05-10T07:35:18;2.38;;;2.17;;
74777;SDS011;63298;53.164;8.610;2023-05-10T07:37:43;2.70;;;2.25;;
74777;SDS011;63298;53.164;8.610;2023-05-10T07:40:08;4.18;;;2.20;;
74777;SDS011;63298;53.164;8.610;2023-05-10T07:42:34;2.28;;;2.08;;
74777;SDS011;63298;53.164;8.610;2023-05-10T07:44:59;2.58;;;2.38;;
74777;SDS011;63298;53.164;8.610;2023-05-10T07:47:25;2.80;;;2.53;;
74777;SDS011;63298;53.164;8.610;2023-05-10T07:49:50;4.72;;;2.58;;
74777;SDS011;63298;53.164;8.610;2023-05-10T07:52:15;2.38;;;2.22;;
74777;SDS011;63298;53.164;8.610;2023-05-10T07:54:40;2.55;;;2.38;;
74777;SDS011;63298;53.164;8.610;2023-05-10T07:57:06;2.50;;;2.30;;
74777;SDS011;63298;53.164;8.610;2023-05-10T07:59:31;2.65;;;2.40;;
74777;SDS011;63298;53.164;8.610;2023-05-10T08:01:56;2.70;;;2.50;;
74777;SDS011;63298;53.164;8.610;2023-05-10T08:04:22;3.50;;;3.20;;
74777;SDS011;63298;53.164;8.610;2023-05-10T08:06:47;4.13;;;3.05;;
74777;SDS011;63298;53.164;8.610;2023-05-10T08:09:12;4.03;;;2.97;;
74777;SDS011;63298;53.164;8.610;2023-05-10T08:11:38;3.53;;;2.75;;
74777;SDS011;63298;53.164;8.610;2023-05-10T08:14:03;3.17;;;2.90;;
74777;SDS011;63298;53.164;8.610;2023-05-10T08:16:28;3.22;;;3.03;;
74777;SDS011;63298;53.164;8.610;2023-05-10T08:18:54;3.30;;;3.00;;
74777;SDS011;63298;53.164;8.610;2023-05-10T08:21:19;6.88;;;2.55;;
74777;SDS011;63298;53.164;8.610;2023-05-10T08:23:44;3.28;;;2.97;;
74777;SDS011;63298;53.164;8.610;2023-05-10T08:26:10;2.87;;;2.63;;
74777;SDS011;63298;53.164;8.610;2023-05-10T08:28:35;3.13;;;2.90;;
74777;SDS011;63298;53.164;8.610;2023-05-10T08:31:00;2.72;;;2.45;;
74777;SDS011;63298;53.164;8.610;2023-05-10T08:33:26;2.60;;;2.40;;
74777;SDS011;63298;53.164;8.610;2023-05-10T08:35:51;2.40;;;2.20;;
74777;SDS011;63298;53.164;8.610;2023-05-10T08:38:17;2.35;;;2.25;;
74777;SDS011;63298;53.164;8.610;2023-05-10T08:40:43;1.70;;;1.48;;
74777;SDS011;63298;53.164;8.610;2023-05-10T08:43:10;1.83;;;1.73;;
74777;SDS011;63298;53.164;8.610;2023-05-10T08:45:38;2.58;;;1.70;;
74777;SDS011;63298;53.164;8.610;2023-05-10T08:48:06;2.85;;;1.52;;
74777;SDS011;63298;53.164;8.610;2023-05-10T08:50:34;2.08;;;1.98;;
74777;SDS011;63298;53.164;8.610;2023-05-10T08:53:01;1.80;;;1.70;;
74777;SDS011;63298;53.164;8.610;2023-05-10T08:55:31;1.83;;;1.73;;
74777;SDS011;63298;53.164;8.610;2023-05-10T08:57:57;1.90;;;1.80;;
74777;SDS011;63298;53.164;8.610;2023-05-10T09:00:22;2.60;;;1.70;;
74777;SDS011;63298;53.164;8.610;2023-05-10T09:02:48;1.80;;;1.70;;
74777;SDS011;63298;53.164;8.610;2023-05-10T09:05:15;2.20;;;1.67;;
74777;SDS011;63298;53.164;8.610;2023-05-10T09:07:40;1.40;;;1.30;;
74777;SDS011;63298;53.164;8.610;2023-05-10T09:10:06;1.60;;;1.50;;
74777;SDS011;63298;53.164;8.610;2023-05-10T09:12:32;2.45;;;1.30;;
74777;SDS011;63298;53.164;8.610;2023-05-10T09:14:58;2.22;;;1.30;;
74777;SDS011;63298;53.164;8.610;2023-05-10T09:17:24;1.45;;;1.35;;
74777;SDS011;63298;53.164;8.610;2023-05-10T09:19:56;1.45;;;1.00;;
74777;SDS011;63298;53.164;8.610;2023-05-10T09:22:23;1.42;;;1.00;;
74777;SDS011;63298;53.164;8.610;2023-05-10T09:25:02;1.10;;;0.98;;
74777;SDS011;63298;53.164;8.610;2023-05-10T09:28:07;1.40;;;0.80;;
74777;SDS011;63298;53.164;8.610;2023-05-10T09:30:33;0.80;;;0.80;;
74777;SDS011;63298;53.164;8.610;2023-05-10T09:32:59;0.70;;;0.70;;
74777;SDS011;63298;53.164;8.610;2023-05-10T09:35:26;1.20;;;1.10;;
74777;SDS011;63298;53.164;8.610;2023-05-10T09:37:53;1.40;;;0.90;;
74777;SDS011;63298;53.164;8.610;2023-05-10T09:40:23;1.90;;;1.00;;
74777;SDS011;63298;53.164;8.610;2023-05-10T09:42:53;1.38;;;1.27;;
74777;SDS011;63298;53.164;8.610;2023-05-10T09:45:22;1.23;;;1.08;;
74777;SDS011;63298;53.164;8.610;2023-05-10T09:47:48;2.60;;;1.08;;
74777;SDS011;63298;53.164;8.610;2023-05-10T09:50:13;2.50;;;1.20;;
74777;SDS011;63298;53.164;8.610;2023-05-10T09:55:21;1.95;;;1.60;;
74777;SDS011;63298;53.164;8.610;2023-05-10T09:57:49;1.40;;;1.30;;
74777;SDS011;63298;53.164;8.610;2023-05-10T10:00:22;1.38;;;1.35;;
74777;SDS011;63298;53.164;8.610;2023-05-10T10:02:54;1.48;;;1.33;;
74777;SDS011;63298;53.164;8.610;2023-05-10T10:05:20;1.92;;;1.60;;
74777;SDS011;63298;53.164;8.610;2023-05-10T10:07:46;1.83;;;1.60;;
74777;SDS011;63298;53.164;8.610;2023-05-10T10:10:11;1.70;;;1.50;;
74777;SDS011;63298;53.164;8.610;2023-05-10T10:12:38;1.40;;;1.30;;
74777;SDS011;63298;53.164;8.610;2023-05-10T10:15:05;1.40;;;1.38;;
74777;SDS011;63298;53.164;8.610;2023-05-10T10:17:31;2.25;;;1.52;;
74777;SDS011;63298;53.164;8.610;2023-05-10T10:19:58;1.40;;;1.30;;
74777;SDS011;63298;53.164;8.610;2023-05-10T10:22:24;1.33;;;1.23;;
74777;SDS011;63298;53.164;8.610;2023-05-10T10:24:50;1.48;;;1.38;;
74777;SDS011;63298;53.164;8.610;2023-05-10T10:27:23;1.20;;;1.15;;
74777;SDS011;63298;53.164;8.610;2023-05-10T10:33:10;1.98;;;1.70;;
74777;SDS011;63298;53.164;8.610;2023-05-10T10:35:48;1.92;;;1.67;;
74777;SDS011;63298;53.164;8.610;2023-05-10T10:38:15;2.10;;;1.40;;
74777;SDS011;63298;53.164;8.610;2023-05-10T10:40:40;1.90;;;1.80;;
74777;SDS011;63298;53.164;8.610;2023-05-10T10:43:21;1.83;;;1.70;;
74777;SDS011;63298;53.164;8.610;2023-05-10T10:45:49;2.55;;;1.52;;
74777;SDS011;63298;53.164;8.610;2023-05-10T10:48:41;2.13;;;1.63;;
74777;SDS011;63298;53.164;8.610;2023-05-10T10:51:13;1.02;;;1.02;;
74777;SDS011;63298;53.164;8.610;2023-05-10T10:53:38;1.20;;;1.10;;
74777;SDS011;63298;53.164;8.610;2023-05-10T10:56:06;1.13;;;1.05;;
74777;SDS011;63298;53.164;8.610;2023-05-10T10:58:33;1.33;;;1.23;;
74777;SDS011;63298;53.164;8.610;2023-05-10T11:01:15;1.00;;;1.00;;
74777;SDS011;63298;53.164;8.610;2023-05-10T11:03:54;1.00;;;1.00;;
74777;SDS011;63298;53.164;8.610;2023-05-10T11:06:40;1.08;;;1.02;;
74777;SDS011;63298;53.164;8.610;2023-05-10T11:09:09;1.27;;;1.10;;
74777;SDS011;63298;53.164;8.610;2023-05-10T11:11:35;1.10;;;1.10;;
74777;SDS011;63298;53.164;8.610;2023-05-10T11:14:12;2.10;;;0.98;;
74777;SDS011;63298;53.164;8.610;2023-05-10T11:16:44;1.02;;;1.00;;
74777;SDS011;63298;53.164;8.610;2023-05-10T11:19:10;1.05;;;0.95;;
74777;SDS011;63298;53.164;8.610;2023-05-10T11:21:49;1.23;;;1.00;;
74777;SDS011;63298;53.164;8.610;2023-05-10T11:24:17;0.82;;;0.82;;
74777;SDS011;63298;53.164;8.610;2023-05-10T11:26:49;1.08;;;0.82;;
74777;SDS011;63298;53.164;8.610;2023-05-10T11:29:15;1.05;;;0.88;;
74777;SDS011;63298;53.164;8.610;2023-05-10T11:31:44;0.93;;;0.63;;
74777;SDS011;63298;53.164;8.610;2023-05-10T11:34:10;0.70;;;0.70;;
74777;SDS011;63298;53.164;8.610;2023-05-10T11:36:36;0.50;;;0.50;;
74777;SDS011;63298;53.164;8.610;2023-05-10T11:39:02;2.13;;;0.95;;
74777;SDS011;63298;53.164;8.610;2023-05-10T11:41:28;0.80;;;0.80;;
74777;SDS011;63298;53.164;8.610;2023-05-10T11:43:55;0.63;;;0.63;;
74777;SDS011;63298;53.164;8.610;2023-05-10T11:46:22;0.50;;;0.50;;
74777;SDS011;63298;53.164;8.610;2023-05-10T11:48:50;0.55;;;0.45;;
74777;SDS011;63298;53.164;8.610;2023-05-10T11:51:20;0.40;;;0.40;;
74777;SDS011;63298;53.164;8.610;2023-05-10T11:53:47;0.20;;;0.20;;
74777;SDS011;63298;53.164;8.610;2023-05-10T11:56:13;0.10;;;0.10;;
74777;SDS011;63298;53.164;8.610;2023-05-10T11:58:39;0.30;;;0.30;;
74777;SDS011;63298;53.164;8.610;2023-05-10T12:01:05;0.15;;;0.15;;
74777;SDS011;63298;53.164;8.610;2023-05-10T12:03:32;0.10;;;0.10;;
74777;SDS011;63298;53.164;8.610;2023-05-10T12:05:57;0.13;;;0.13;;
74777;SDS011;63298;53.164;8.610;2023-05-10T12:08:27;0.15;;;0.15;;
74777;SDS011;63298;53.164;8.610;2023-05-10T12:11:03;0.20;;;0.20;;
74777;SDS011;63298;53.164;8.610;2023-05-10T12:13:29;0.10;;;0.10;;
74777;SDS011;63298;53.164;8.610;2023-05-10T12:15:57;0.20;;;0.20;;
74777;SDS011;63298;53.164;8.610;2023-05-10T12:18:23;0.20;;;0.20;;
74777;SDS011;63298;53.164;8.610;2023-05-10T12:20:49;1.55;;;0.20;;
74777;SDS011;63298;53.164;8.610;2023-05-10T12:23:17;0.22;;;0.22;;
74777;SDS011;63298;53.164;8.610;2023-05-10T12:25:42;0.75;;;0.57;;
74777;SDS011;63298;53.164;8.610;2023-05-10T12:28:08;0.65;;;0.65;;
74777;SDS011;63298;53.164;8.610;2023-05-10T12:30:35;0.60;;;0.60;;
74777;SDS011;63298;53.164;8.610;2023-05-10T12:33:11;0.70;;;0.70;;
74777;SDS011;63298;53.164;8.610;2023-05-10T12:35:48;0.90;;;0.90;;
74777;SDS011;63298;53.164;8.610;2023-05-10T12:38:25;2.90;;;1.10;;
74777;SDS011;63298;53.164;8.610;2023-05-10T12:40:50;1.23;;;1.23;;
74777;SDS011;63298;53.164;8.610;2023-05-10T12:43:15;1.75;;;1.65;;
74777;SDS011;63298;53.164;8.610;2023-05-10T12:45:41;2.17;;;1.85;;
74777;SDS011;63298;53.164;8.610;2023-05-10T12:48:06;1.92;;;1.83;;
74777;SDS011;63298;53.164;8.610;2023-05-10T12:50:31;2.22;;;1.95;;
74777;SDS011;63298;53.164;8.610;2023-05-10T12:52:58;2.17;;;1.98;;
74777;SDS011;63298;53.164;8.610;2023-05-10T12:55:24;2.88;;;2.67;;
74777;SDS011;63298;53.164;8.610;2023-05-10T12:57:49;2.78;;;2.58;;
74777;SDS011;63298;53.164;8.610;2023-05-10T13:00:14;3.13;;;2.83;;
74777;SDS011;63298;53.164;8.610;2023-05-10T13:02:40;2.58;;;2.38;;
74777;SDS011;63298;53.164;8.610;2023-05-10T13:05:05;2.35;;;2.25;;
74777;SDS011;63298;53.164;8.610;2023-05-10T13:07:31;2.42;;;2.22;;
74777;SDS011;63298;53.164;8.610;2023-05-10T13:09:56;3.08;;;2.78;;
74777;SDS011;63298;53.164;8.610;2023-05-10T13:12:22;3.05;;;2.63;;
74777;SDS011;63298;53.164;8.610;2023-05-10T13:14:47;3.35;;;3.00;;
74777;SDS011;63298;53.164;8.610;2023-05-10T13:17:12;4.20;;;3.33;;
74777;SDS011;63298;53.164;8.610;2023-05-10T13:19:38;3.03;;;2.83;;
74777;SDS011;63298;53.164;8.610;2023-05-10T13:22:03;2.85;;;2.65;;
74777;SDS011;63298;53.164;8.610;2023-05-10T13:24:28;3.40;;;3.10;;
74777;SDS011;63298;53.164;8.610;2023-05-10T13:26:54;3.47;;;3.17;;
74777;SDS011;63298;53.164;8.610;2023-05-10T13:29:19;3.17;;;2.85;;
74777;SDS011;63298;53.164;8.610;2023-05-10T13:31:44;2.67;;;2.47;;
74777;SDS011;63298;53.164;8.610;2023-05-10T13:34:10;2.65;;;2.45;;
74777;SDS011;63298;53.164;8.610;2023-05-10T13:36:35;2.40;;;2.30;;
74777;SDS011;63298;53.164;8.610;2023-05-10T13:39:01;2.95;;;2.75;;
74777;SDS011;63298;53.164;8.610;2023-05-10T13:41:26;2.90;;;2.70;;
74777;SDS011;63298;53.164;8.610;2023-05-10T13:43:51;2.85;;;2.65;;
74777;SDS011;63298;53.164;8.610;2023-05-10T13:46:17;4.30;;;2.83;;
74777;SDS011;63298;53.164;8.610;2023-05-10T13:48:42;3.42;;;2.30;;
74777;SDS011;63298;53.164;8.610;2023-05-10T13:51:07;2.83;;;2.30;;
74777;SDS011;63298;53.164;8.610;2023-05-10T13:53:33;2.58;;;2.22;;
74777;SDS011;63298;53.164;8.610;2023-05-10T13:55:58;2.13;;;1.92;;
74777;SDS011;63298;53.164;8.610;2023-05-10T13:58:23;3.60;;;2.33;;
74777;SDS011;63298;53.164;8.610;2023-05-10T14:00:48;2.92;;;2.13;;
74777;SDS011;63298;53.164;8.610;2023-05-10T14:03:14;3.17;;;1.77;;
74777;SDS011;63298;53.164;8.610;2023-05-10T14:05:39;2.03;;;1.92;;
74777;SDS011;63298;53.164;8.610;2023-05-10T14:08:04;1.98;;;1.88;;
74777;SDS011;63298;53.164;8.610;2023-05-10T14:10:30;2.47;;;1.98;;
74777;SDS011;63298;53.164;8.610;2023-05-10T14:12:55;2.65;;;1.70;;
74777;SDS011;63298;53.164;8.610;2023-05-10T14:15:20;1.85;;;1.75;;
74777;SDS011;63298;53.164;8.610;2023-05-10T14:17:46;2.40;;;1.50;;
74777;SDS011;63298;53.164;8.610;2023-05-10T14:20:11;1.60;;;1.50;;
74777;SDS011;63298;53.164;8.610;2023-05-10T14:22:36;1.90;;;1.77;;
74777;SDS011;63298;53.164;8.610;2023-05-10T14:25:02;1.40;;;1.30;;
74777;SDS011;63298;53.164;8.610;2023-05-10T14:27:27;1.55;;;1.45;;
74777;SDS011;63298;53.164;8.610;2023-05-10T14:29:53;1.50;;;1.40;;
74777;SDS011;63298;53.164;8.610;2023-05-10T14:32:18;1.75;;;1.63;;
74777;SDS011;63298;53.164;8.610;2023-05-10T14:34:43;1.50;;;1.30;;
74777;SDS011;63298;53.164;8.610;2023-05-10T14:37:09;2.13;;;1.33;;
74777;SDS011;63298;53.164;8.610;2023-05-10T14:39:35;1.83;;;1.73;;
74777;SDS011;63298;53.164;8.610;2023-05-10T14:42:01;2.42;;;1.48;;
74777;SDS011;63298;53.164;8.610;2023-05-10T14:44:26;1.40;;;1.30;;
74777;SDS011;63298;53.164;8.610;2023-05-10T14:46:51;2.78;;;1.50;;
74777;SDS011;63298;53.164;8.610;2023-05-10T14:49:17;1.67;;;1.58;;
74777;SDS011;63298;53.164;8.610;2023-05-10T14:51:42;2.15;;;1.50;;
74777;SDS011;63298;53.164;8.610;2023-05-10T14:54:07;2.15;;;1.73;;
74777;SDS011;63298;53.164;8.610;2023-05-10T14:56:33;2.05;;;1.85;;
74777;SDS011;63298;53.164;8.610;2023-05-10T14:58:58;2.10;;;1.90;;
74777;SDS011;63298;53.164;8.610;2023-05-10T15:01:23;2.13;;;1.58;;
74777;SDS011;63298;53.164;8.610;2023-05-10T15:03:48;2.00;;;1.40;;
74777;SDS011;63298;53.164;8.610;2023-05-10T15:06:14;1.60;;;1.50;;
74777;SDS011;63298;53.164;8.610;2023-05-10T15:08:40;3.47;;;1.67;;
74777;SDS011;63298;53.164;8.610;2023-05-10T15:11:05;1.63;;;1.52;;
74777;SDS011;63298;53.164;8.610;2023-05-10T15:13:31;1.30;;;1.20;;
74777;SDS011;63298;53.164;8.610;2023-05-10T15:15:56;1.30;;;1.30;;
74777;SDS011;63298;53.164;8.610;2023-05-10T15:18:21;1.73;;;1.25;;